Terminal Aerodrome Forecast
Issued by NWS Charleston, WV

Current Version | Previous Version | Text Only | Print | Product List | Glossary Off
Versions: 1 2 3 4 5 6 7 8 9 10 11 12 13 14 15 16 17 18 19 20 21 22

007
FTUS41 KRLX 100911 AAA
TAFCRW
TAF AMD
KCRW 100911Z 1009/1106 26010G19KT 3SM -SHSN OVC015
      TEMPO 1009/1013 6SM -SHSN SCT015 OVC025
     FM101300 26009KT P6SM -SHSN OVC025
     FM101800 26009KT P6SM -SHSN OVC035
     FM110100 26009KT P6SM BKN025
     FM110300 26010G19KT P6SM BKN025=

USA.gov is the U.S. government's official web portal to all federal, state and local government web resources and services.